ニアメ の空港の天気 - METARとTAF

ニアメ/ディオリ・アマニ国際空港 ( DRRN / NIM ) - ニジェール ニアメ
飛行場実況気象(Metar)
観測時間11/17 20:00 WAT (11/17 19:00 UTC)
風向・風速東北東 1m/s
視程3000m
天気現象風塵
なし
気温30℃
湿度17%
気圧1012hPa
METARDRRN 171900Z 06002KT 3000 DU NSC 30/02 Q1012 NOSIG
過去の天気等 Google飛行場航空写真 Wunderground天気予報

過去48時間のMETAR

飛行場予報(TAF)
発表時間: 11/17 18:00 WAT (11/17 17:00 UTC)
予報対象時間: 17日19時 WAT ~ 19日1時 WAT
風向・風速東南東 4m/s
視程3500m
天気現象風塵
なし
17日19時 WAT ~ 17日21時 WAT に一時的に
視程2500m
18日7時 WAT ~ 18日10時 WAT に一時的に
視程2000m
TAF DRRN 171700Z 1718/1824 12008KT 3500 DU NSC
TEMPO 1718/1720 2500
TEMPO 1806/1809 2000